sensor_id;sensor_type;location;lat;lon;timestamp;P1;durP1;ratioP1;P2;durP2;ratioP2
65799;SDS011;52544;48.116;11.660;2022-11-13T00:01:23;44.80;;;11.30;;
65799;SDS011;52544;48.116;11.660;2022-11-13T00:03:49;32.25;;;11.07;;
65799;SDS011;52544;48.116;11.660;2022-11-13T00:06:15;22.05;;;10.30;;
65799;SDS011;52544;48.116;11.660;2022-11-13T00:08:41;37.85;;;10.30;;
65799;SDS011;52544;48.116;11.660;2022-11-13T00:11:11;70.70;;;11.40;;
65799;SDS011;52544;48.116;11.660;2022-11-13T00:13:39;25.70;;;10.30;;
65799;SDS011;52544;48.116;11.660;2022-11-13T00:16:05;20.10;;;9.57;;
65799;SDS011;52544;48.116;11.660;2022-11-13T00:18:34;26.27;;;10.75;;
65799;SDS011;52544;48.116;11.660;2022-11-13T00:21:08;19.25;;;10.75;;
65799;SDS011;52544;48.116;11.660;2022-11-13T00:23:51;20.52;;;10.80;;
65799;SDS011;52544;48.116;11.660;2022-11-13T00:26:21;33.85;;;11.32;;
65799;SDS011;52544;48.116;11.660;2022-11-13T00:28:56;33.30;;;11.23;;
65799;SDS011;52544;48.116;11.660;2022-11-13T00:31:23;35.33;;;11.52;;
65799;SDS011;52544;48.116;11.660;2022-11-13T00:33:49;28.10;;;11.65;;
65799;SDS011;52544;48.116;11.660;2022-11-13T00:36:16;35.65;;;11.98;;
65799;SDS011;52544;48.116;11.660;2022-11-13T00:38:43;28.77;;;10.43;;
65799;SDS011;52544;48.116;11.660;2022-11-13T00:41:09;28.08;;;11.65;;
65799;SDS011;52544;48.116;11.660;2022-11-13T00:43:34;52.60;;;11.80;;
65799;SDS011;52544;48.116;11.660;2022-11-13T00:46:00;37.08;;;10.48;;
65799;SDS011;52544;48.116;11.660;2022-11-13T00:48:25;30.58;;;11.60;;
65799;SDS011;52544;48.116;11.660;2022-11-13T00:50:51;32.33;;;10.60;;
65799;SDS011;52544;48.116;11.660;2022-11-13T00:53:16;23.48;;;10.70;;
65799;SDS011;52544;48.116;11.660;2022-11-13T00:55:42;32.47;;;10.45;;
65799;SDS011;52544;48.116;11.660;2022-11-13T00:58:09;86.72;;;11.38;;
65799;SDS011;52544;48.116;11.660;2022-11-13T01:00:35;59.00;;;10.40;;
65799;SDS011;52544;48.116;11.660;2022-11-13T01:03:00;59.55;;;11.00;;
65799;SDS011;52544;48.116;11.660;2022-11-13T01:05:26;70.82;;;11.63;;
65799;SDS011;52544;48.116;11.660;2022-11-13T01:07:52;57.05;;;10.52;;
65799;SDS011;52544;48.116;11.660;2022-11-13T01:10:18;37.75;;;10.10;;
65799;SDS011;52544;48.116;11.660;2022-11-13T01:12:44;77.78;;;10.73;;
65799;SDS011;52544;48.116;11.660;2022-11-13T01:15:09;26.35;;;9.75;;
65799;SDS011;52544;48.116;11.660;2022-11-13T01:17:35;64.95;;;10.32;;
65799;SDS011;52544;48.116;11.660;2022-11-13T01:20:00;59.95;;;9.27;;
65799;SDS011;52544;48.116;11.660;2022-11-13T01:22:26;46.90;;;9.43;;
65799;SDS011;52544;48.116;11.660;2022-11-13T01:24:51;27.35;;;9.48;;
65799;SDS011;52544;48.116;11.660;2022-11-13T01:27:16;89.53;;;10.80;;
65799;SDS011;52544;48.116;11.660;2022-11-13T01:29:42;45.00;;;9.98;;
65799;SDS011;52544;48.116;11.660;2022-11-13T01:32:07;48.60;;;9.68;;
65799;SDS011;52544;48.116;11.660;2022-11-13T01:34:33;18.55;;;9.02;;
65799;SDS011;52544;48.116;11.660;2022-11-13T01:36:58;41.72;;;10.05;;
65799;SDS011;52544;48.116;11.660;2022-11-13T01:39:24;53.15;;;9.00;;
65799;SDS011;52544;48.116;11.660;2022-11-13T01:41:50;82.25;;;10.77;;
65799;SDS011;52544;48.116;11.660;2022-11-13T01:44:16;27.08;;;9.82;;
65799;SDS011;52544;48.116;11.660;2022-11-13T01:46:52;52.92;;;9.65;;
65799;SDS011;52544;48.116;11.660;2022-11-13T01:52:06;43.08;;;9.15;;
65799;SDS011;52544;48.116;11.660;2022-11-13T01:54:40;58.70;;;9.13;;
65799;SDS011;52544;48.116;11.660;2022-11-13T01:57:08;46.50;;;9.50;;
65799;SDS011;52544;48.116;11.660;2022-11-13T01:59:37;30.50;;;9.15;;
65799;SDS011;52544;48.116;11.660;2022-11-13T02:02:05;150.25;;;12.02;;
65799;SDS011;52544;48.116;11.660;2022-11-13T02:04:30;146.43;;;11.98;;
65799;SDS011;52544;48.116;11.660;2022-11-13T02:07:03;41.10;;;9.70;;
65799;SDS011;52544;48.116;11.660;2022-11-13T02:09:35;54.28;;;9.82;;
65799;SDS011;52544;48.116;11.660;2022-11-13T02:12:07;32.08;;;8.82;;
65799;SDS011;52544;48.116;11.660;2022-11-13T02:14:37;77.90;;;10.50;;
65799;SDS011;52544;48.116;11.660;2022-11-13T02:17:06;111.63;;;11.32;;
65799;SDS011;52544;48.116;11.660;2022-11-13T02:19:35;44.97;;;9.88;;
65799;SDS011;52544;48.116;11.660;2022-11-13T02:24:41;116.47;;;11.63;;
65799;SDS011;52544;48.116;11.660;2022-11-13T02:27:10;71.65;;;10.30;;
65799;SDS011;52544;48.116;11.660;2022-11-13T02:29:51;43.63;;;10.65;;
65799;SDS011;52544;48.116;11.660;2022-11-13T02:32:16;38.33;;;9.63;;
65799;SDS011;52544;48.116;11.660;2022-11-13T02:34:42;26.65;;;9.60;;
65799;SDS011;52544;48.116;11.660;2022-11-13T02:37:07;26.60;;;9.65;;
65799;SDS011;52544;48.116;11.660;2022-11-13T02:39:33;83.00;;;10.43;;
65799;SDS011;52544;48.116;11.660;2022-11-13T02:41:58;19.15;;;8.73;;
65799;SDS011;52544;48.116;11.660;2022-11-13T02:44:23;21.83;;;8.25;;
65799;SDS011;52544;48.116;11.660;2022-11-13T02:46:49;29.63;;;8.75;;
65799;SDS011;52544;48.116;11.660;2022-11-13T02:49:14;31.85;;;8.18;;
65799;SDS011;52544;48.116;11.660;2022-11-13T02:51:39;17.23;;;8.15;;
65799;SDS011;52544;48.116;11.660;2022-11-13T02:54:05;31.15;;;8.73;;
65799;SDS011;52544;48.116;11.660;2022-11-13T02:56:30;21.95;;;8.18;;
65799;SDS011;52544;48.116;11.660;2022-11-13T02:58:56;16.08;;;7.60;;
65799;SDS011;52544;48.116;11.660;2022-11-13T03:01:21;19.65;;;7.40;;
65799;SDS011;52544;48.116;11.660;2022-11-13T03:03:47;19.48;;;7.47;;
65799;SDS011;52544;48.116;11.660;2022-11-13T03:06:12;39.58;;;7.28;;
65799;SDS011;52544;48.116;11.660;2022-11-13T03:08:38;15.18;;;7.85;;
65799;SDS011;52544;48.116;11.660;2022-11-13T03:11:07;12.55;;;7.32;;
65799;SDS011;52544;48.116;11.660;2022-11-13T03:13:34;12.80;;;7.75;;
65799;SDS011;52544;48.116;11.660;2022-11-13T03:16:10;25.58;;;6.88;;
65799;SDS011;52544;48.116;11.660;2022-11-13T03:18:37;41.70;;;7.70;;
65799;SDS011;52544;48.116;11.660;2022-11-13T03:21:10;21.48;;;7.75;;
65799;SDS011;52544;48.116;11.660;2022-11-13T03:23:38;29.88;;;7.18;;
65799;SDS011;52544;48.116;11.660;2022-11-13T03:26:05;30.30;;;7.45;;
65799;SDS011;52544;48.116;11.660;2022-11-13T03:28:33;36.70;;;7.55;;
65799;SDS011;52544;48.116;11.660;2022-11-13T03:30:58;37.65;;;7.15;;
65799;SDS011;52544;48.116;11.660;2022-11-13T03:33:24;33.53;;;7.60;;
65799;SDS011;52544;48.116;11.660;2022-11-13T03:35:50;12.38;;;6.88;;
65799;SDS011;52544;48.116;11.660;2022-11-13T03:38:15;28.52;;;7.75;;
65799;SDS011;52544;48.116;11.660;2022-11-13T03:40:41;12.63;;;7.07;;
65799;SDS011;52544;48.116;11.660;2022-11-13T03:43:06;74.45;;;8.15;;
65799;SDS011;52544;48.116;11.660;2022-11-13T03:45:32;26.65;;;7.45;;
65799;SDS011;52544;48.116;11.660;2022-11-13T03:47:58;16.23;;;6.95;;
65799;SDS011;52544;48.116;11.660;2022-11-13T03:50:24;13.30;;;7.53;;
65799;SDS011;52544;48.116;11.660;2022-11-13T03:52:49;24.90;;;7.25;;
65799;SDS011;52544;48.116;11.660;2022-11-13T03:55:14;16.65;;;7.82;;
65799;SDS011;52544;48.116;11.660;2022-11-13T03:57:40;14.02;;;7.20;;
65799;SDS011;52544;48.116;11.660;2022-11-13T04:00:05;17.08;;;6.82;;
65799;SDS011;52544;48.116;11.660;2022-11-13T04:02:31;20.98;;;6.80;;
65799;SDS011;52544;48.116;11.660;2022-11-13T04:04:56;31.98;;;7.57;;
65799;SDS011;52544;48.116;11.660;2022-11-13T04:07:22;14.55;;;7.05;;
65799;SDS011;52544;48.116;11.660;2022-11-13T04:09:47;10.93;;;6.53;;
65799;SDS011;52544;48.116;11.660;2022-11-13T04:12:13;58.50;;;7.70;;
65799;SDS011;52544;48.116;11.660;2022-11-13T04:14:38;16.52;;;6.90;;
65799;SDS011;52544;48.116;11.660;2022-11-13T04:17:03;14.93;;;6.75;;
65799;SDS011;52544;48.116;11.660;2022-11-13T04:19:29;32.13;;;7.35;;
65799;SDS011;52544;48.116;11.660;2022-11-13T04:21:54;35.63;;;6.70;;
65799;SDS011;52544;48.116;11.660;2022-11-13T04:24:19;17.15;;;6.45;;
65799;SDS011;52544;48.116;11.660;2022-11-13T04:26:45;55.97;;;7.43;;
65799;SDS011;52544;48.116;11.660;2022-11-13T04:29:10;45.00;;;7.00;;
65799;SDS011;52544;48.116;11.660;2022-11-13T04:31:35;42.05;;;7.22;;
65799;SDS011;52544;48.116;11.660;2022-11-13T04:34:01;23.23;;;6.32;;
65799;SDS011;52544;48.116;11.660;2022-11-13T04:36:26;18.95;;;6.97;;
65799;SDS011;52544;48.116;11.660;2022-11-13T04:38:52;56.38;;;7.32;;
65799;SDS011;52544;48.116;11.660;2022-11-13T04:41:17;29.80;;;7.63;;
65799;SDS011;52544;48.116;11.660;2022-11-13T04:44:01;14.20;;;6.85;;
65799;SDS011;52544;48.116;11.660;2022-11-13T04:46:26;24.80;;;6.47;;
65799;SDS011;52544;48.116;11.660;2022-11-13T04:48:52;12.13;;;6.78;;
65799;SDS011;52544;48.116;11.660;2022-11-13T04:51:17;20.45;;;5.93;;
65799;SDS011;52544;48.116;11.660;2022-11-13T04:53:42;28.63;;;6.70;;
65799;SDS011;52544;48.116;11.660;2022-11-13T04:56:08;27.98;;;6.13;;
65799;SDS011;52544;48.116;11.660;2022-11-13T04:58:33;27.17;;;6.38;;
65799;SDS011;52544;48.116;11.660;2022-11-13T05:00:59;64.40;;;7.53;;
65799;SDS011;52544;48.116;11.660;2022-11-13T05:03:24;21.20;;;6.05;;
65799;SDS011;52544;48.116;11.660;2022-11-13T05:05:49;70.63;;;8.02;;
65799;SDS011;52544;48.116;11.660;2022-11-13T05:08:15;9.50;;;5.85;;
65799;SDS011;52544;48.116;11.660;2022-11-13T05:10:40;39.28;;;6.25;;
65799;SDS011;52544;48.116;11.660;2022-11-13T05:13:06;24.73;;;6.07;;
65799;SDS011;52544;48.116;11.660;2022-11-13T05:15:31;26.05;;;6.68;;
65799;SDS011;52544;48.116;11.660;2022-11-13T05:17:56;23.40;;;6.90;;
65799;SDS011;52544;48.116;11.660;2022-11-13T05:20:22;82.90;;;7.50;;
65799;SDS011;52544;48.116;11.660;2022-11-13T05:22:47;10.32;;;6.25;;
65799;SDS011;52544;48.116;11.660;2022-11-13T05:25:12;22.15;;;6.75;;
65799;SDS011;52544;48.116;11.660;2022-11-13T05:27:38;25.73;;;6.75;;
65799;SDS011;52544;48.116;11.660;2022-11-13T05:30:03;17.42;;;6.53;;
65799;SDS011;52544;48.116;11.660;2022-11-13T05:32:30;16.40;;;6.45;;
65799;SDS011;52544;48.116;11.660;2022-11-13T05:34:56;26.83;;;7.03;;
65799;SDS011;52544;48.116;11.660;2022-11-13T05:37:22;9.30;;;6.20;;
65799;SDS011;52544;48.116;11.660;2022-11-13T05:39:47;18.95;;;6.70;;
65799;SDS011;52544;48.116;11.660;2022-11-13T05:42:12;24.35;;;6.07;;
65799;SDS011;52544;48.116;11.660;2022-11-13T05:44:38;17.23;;;6.72;;
65799;SDS011;52544;48.116;11.660;2022-11-13T05:47:03;13.20;;;6.30;;
65799;SDS011;52544;48.116;11.660;2022-11-13T05:49:28;33.03;;;7.50;;
65799;SDS011;52544;48.116;11.660;2022-11-13T05:51:54;33.83;;;7.47;;
65799;SDS011;52544;48.116;11.660;2022-11-13T05:54:19;29.20;;;7.07;;
65799;SDS011;52544;48.116;11.660;2022-11-13T05:56:45;19.00;;;7.00;;
65799;SDS011;52544;48.116;11.660;2022-11-13T05:59:10;24.83;;;6.72;;
65799;SDS011;52544;48.116;11.660;2022-11-13T06:01:36;36.05;;;6.57;;
65799;SDS011;52544;48.116;11.660;2022-11-13T06:04:03;25.73;;;6.60;;
65799;SDS011;52544;48.116;11.660;2022-11-13T06:06:30;61.80;;;7.30;;
65799;SDS011;52544;48.116;11.660;2022-11-13T06:08:56;78.60;;;7.53;;
65799;SDS011;52544;48.116;11.660;2022-11-13T06:11:24;78.70;;;7.68;;
65799;SDS011;52544;48.116;11.660;2022-11-13T06:13:51;28.42;;;7.65;;
65799;SDS011;52544;48.116;11.660;2022-11-13T06:16:22;87.65;;;8.32;;
65799;SDS011;52544;48.116;11.660;2022-11-13T06:18:58;68.03;;;7.68;;
65799;SDS011;52544;48.116;11.660;2022-11-13T06:21:26;46.60;;;7.38;;
65799;SDS011;52544;48.116;11.660;2022-11-13T06:23:53;34.97;;;6.97;;
65799;SDS011;52544;48.116;11.660;2022-11-13T06:26:22;57.17;;;7.13;;
65799;SDS011;52544;48.116;11.660;2022-11-13T06:28:49;50.00;;;6.82;;
65799;SDS011;52544;48.116;11.660;2022-11-13T06:31:16;87.65;;;6.97;;
65799;SDS011;52544;48.116;11.660;2022-11-13T06:33:55;31.98;;;6.45;;
65799;SDS011;52544;48.116;11.660;2022-11-13T06:36:23;18.80;;;5.50;;
65799;SDS011;52544;48.116;11.660;2022-11-13T06:38:50;15.98;;;5.85;;
65799;SDS011;52544;48.116;11.660;2022-11-13T06:41:17;21.60;;;5.43;;
65799;SDS011;52544;48.116;11.660;2022-11-13T06:43:44;15.00;;;6.35;;
65799;SDS011;52544;48.116;11.660;2022-11-13T06:46:18;18.08;;;5.57;;
65799;SDS011;52544;48.116;11.660;2022-11-13T06:48:46;27.95;;;5.25;;
65799;SDS011;52544;48.116;11.660;2022-11-13T06:51:13;13.27;;;5.55;;
65799;SDS011;52544;48.116;11.660;2022-11-13T06:53:42;10.38;;;5.50;;
65799;SDS011;52544;48.116;11.660;2022-11-13T06:56:08;25.13;;;6.20;;
65799;SDS011;52544;48.116;11.660;2022-11-13T06:58:34;17.05;;;5.72;;
65799;SDS011;52544;48.116;11.660;2022-11-13T07:01:04;12.60;;;6.53;;
65799;SDS011;52544;48.116;11.660;2022-11-13T07:03:33;38.03;;;15.95;;
65799;SDS011;52544;48.116;11.660;2022-11-13T07:06:03;13.38;;;7.53;;
65799;SDS011;52544;48.116;11.660;2022-11-13T07:08:30;9.68;;;5.75;;
65799;SDS011;52544;48.116;11.660;2022-11-13T07:10:55;9.73;;;5.60;;
65799;SDS011;52544;48.116;11.660;2022-11-13T07:13:22;10.45;;;6.22;;
65799;SDS011;52544;48.116;11.660;2022-11-13T07:15:48;12.73;;;6.20;;
65799;SDS011;52544;48.116;11.660;2022-11-13T07:18:13;10.40;;;5.95;;
65799;SDS011;52544;48.116;11.660;2022-11-13T07:20:38;16.90;;;6.70;;
65799;SDS011;52544;48.116;11.660;2022-11-13T07:23:04;28.02;;;7.25;;
65799;SDS011;52544;48.116;11.660;2022-11-13T07:25:30;14.95;;;7.38;;
65799;SDS011;52544;48.116;11.660;2022-11-13T07:27:55;18.17;;;6.53;;
65799;SDS011;52544;48.116;11.660;2022-11-13T07:30:21;11.52;;;6.75;;
65799;SDS011;52544;48.116;11.660;2022-11-13T07:32:47;11.18;;;6.28;;
65799;SDS011;52544;48.116;11.660;2022-11-13T07:35:12;10.88;;;6.78;;
65799;SDS011;52544;48.116;11.660;2022-11-13T07:37:38;29.42;;;6.93;;
65799;SDS011;52544;48.116;11.660;2022-11-13T07:40:04;26.02;;;7.60;;
65799;SDS011;52544;48.116;11.660;2022-11-13T07:42:29;36.63;;;7.47;;
65799;SDS011;52544;48.116;11.660;2022-11-13T07:44:55;10.52;;;6.05;;
65799;SDS011;52544;48.116;11.660;2022-11-13T07:47:20;19.50;;;6.40;;
65799;SDS011;52544;48.116;11.660;2022-11-13T07:49:46;21.55;;;7.60;;
65799;SDS011;52544;48.116;11.660;2022-11-13T07:52:11;13.15;;;7.68;;
65799;SDS011;52544;48.116;11.660;2022-11-13T07:54:37;12.18;;;6.63;;
65799;SDS011;52544;48.116;11.660;2022-11-13T07:57:02;18.45;;;6.00;;
65799;SDS011;52544;48.116;11.660;2022-11-13T07:59:27;8.48;;;5.47;;
65799;SDS011;52544;48.116;11.660;2022-11-13T08:01:53;15.55;;;7.32;;
65799;SDS011;52544;48.116;11.660;2022-11-13T08:04:18;10.38;;;5.53;;
65799;SDS011;52544;48.116;11.660;2022-11-13T08:06:44;10.98;;;5.93;;
65799;SDS011;52544;48.116;11.660;2022-11-13T08:09:09;10.95;;;6.13;;
65799;SDS011;52544;48.116;11.660;2022-11-13T08:11:35;9.55;;;5.20;;
65799;SDS011;52544;48.116;11.660;2022-11-13T08:14:00;12.80;;;5.97;;
65799;SDS011;52544;48.116;11.660;2022-11-13T08:16:26;21.02;;;6.20;;
65799;SDS011;52544;48.116;11.660;2022-11-13T08:18:51;9.40;;;5.30;;
65799;SDS011;52544;48.116;11.660;2022-11-13T08:21:17;12.30;;;6.88;;
65799;SDS011;52544;48.116;11.660;2022-11-13T08:23:42;13.43;;;6.47;;
65799;SDS011;52544;48.116;11.660;2022-11-13T08:26:08;12.25;;;6.57;;
65799;SDS011;52544;48.116;11.660;2022-11-13T08:28:34;12.82;;;6.97;;
65799;SDS011;52544;48.116;11.660;2022-11-13T08:31:00;13.88;;;7.10;;
65799;SDS011;52544;48.116;11.660;2022-11-13T08:33:26;26.35;;;7.78;;
65799;SDS011;52544;48.116;11.660;2022-11-13T08:35:56;12.68;;;7.38;;
65799;SDS011;52544;48.116;11.660;2022-11-13T08:38:23;12.63;;;7.28;;
65799;SDS011;52544;48.116;11.660;2022-11-13T08:40:49;13.23;;;7.13;;
65799;SDS011;52544;48.116;11.660;2022-11-13T08:43:14;28.85;;;9.27;;
65799;SDS011;52544;48.116;11.660;2022-11-13T08:45:40;17.65;;;9.05;;
65799;SDS011;52544;48.116;11.660;2022-11-13T08:48:05;16.85;;;8.90;;
65799;SDS011;52544;48.116;11.660;2022-11-13T08:50:32;22.10;;;10.75;;
65799;SDS011;52544;48.116;11.660;2022-11-13T08:52:58;26.92;;;11.52;;
65799;SDS011;52544;48.116;11.660;2022-11-13T08:55:25;16.75;;;9.27;;
65799;SDS011;52544;48.116;11.660;2022-11-13T08:57:51;21.85;;;9.38;;
65799;SDS011;52544;48.116;11.660;2022-11-13T09:00:17;16.20;;;8.57;;
65799;SDS011;52544;48.116;11.660;2022-11-13T09:02:44;16.55;;;8.90;;
65799;SDS011;52544;48.116;11.660;2022-11-13T09:05:10;21.30;;;9.10;;
65799;SDS011;52544;48.116;11.660;2022-11-13T09:07:35;21.40;;;11.40;;
65799;SDS011;52544;48.116;11.660;2022-11-13T09:10:00;18.90;;;10.15;;
65799;SDS011;52544;48.116;11.660;2022-11-13T09:12:26;23.77;;;10.68;;
65799;SDS011;52544;48.116;11.660;2022-11-13T09:14:51;20.75;;;10.68;;
65799;SDS011;52544;48.116;11.660;2022-11-13T09:17:17;19.88;;;10.10;;
65799;SDS011;52544;48.116;11.660;2022-11-13T09:19:42;18.33;;;9.73;;
65799;SDS011;52544;48.116;11.660;2022-11-13T09:22:08;19.02;;;10.25;;
65799;SDS011;52544;48.116;11.660;2022-11-13T09:24:34;18.65;;;9.50;;
65799;SDS011;52544;48.116;11.660;2022-11-13T09:27:00;16.73;;;9.05;;
65799;SDS011;52544;48.116;11.660;2022-11-13T09:29:25;20.20;;;9.82;;
65799;SDS011;52544;48.116;11.660;2022-11-13T09:31:53;18.05;;;9.90;;
65799;SDS011;52544;48.116;11.660;2022-11-13T09:34:19;20.33;;;10.25;;
65799;SDS011;52544;48.116;11.660;2022-11-13T09:36:44;24.60;;;12.63;;
65799;SDS011;52544;48.116;11.660;2022-11-13T09:39:10;20.23;;;10.80;;
65799;SDS011;52544;48.116;11.660;2022-11-13T09:44:11;22.85;;;10.77;;
65799;SDS011;52544;48.116;11.660;2022-11-13T09:49:17;21.60;;;10.32;;
65799;SDS011;52544;48.116;11.660;2022-11-13T09:51:54;22.08;;;12.13;;
65799;SDS011;52544;48.116;11.660;2022-11-13T09:54:21;24.10;;;12.38;;
65799;SDS011;52544;48.116;11.660;2022-11-13T09:57:00;25.52;;;12.23;;
65799;SDS011;52544;48.116;11.660;2022-11-13T10:05:22;17.88;;;9.60;;
65799;SDS011;52544;48.116;11.660;2022-11-13T10:07:56;17.23;;;8.25;;
65799;SDS011;52544;48.116;11.660;2022-11-13T10:13:30;12.82;;;7.43;;
65799;SDS011;52544;48.116;11.660;2022-11-13T10:18:50;14.15;;;7.10;;
65799;SDS011;52544;48.116;11.660;2022-11-13T10:23:50;11.95;;;7.20;;
65799;SDS011;52544;48.116;11.660;2022-11-13T10:26:20;13.48;;;7.28;;
65799;SDS011;52544;48.116;11.660;2022-11-13T10:28:52;13.10;;;7.40;;
65799;SDS011;52544;48.116;11.660;2022-11-13T10:31:45;11.50;;;6.55;;
65799;SDS011;52544;48.116;11.660;2022-11-13T10:34:15;10.02;;;6.40;;
65799;SDS011;52544;48.116;11.660;2022-11-13T10:39:44;12.95;;;6.50;;
65799;SDS011;52544;48.116;11.660;2022-11-13T10:42:33;11.57;;;6.97;;
65799;SDS011;52544;48.116;11.660;2022-11-13T10:45:15;11.27;;;7.20;;
65799;SDS011;52544;48.116;11.660;2022-11-13T10:47:47;12.50;;;7.60;;
65799;SDS011;52544;48.116;11.660;2022-11-13T10:50:22;12.90;;;7.93;;
65799;SDS011;52544;48.116;11.660;2022-11-13T10:52:49;12.77;;;7.97;;
65799;SDS011;52544;48.116;11.660;2022-11-13T10:57:59;11.82;;;7.10;;
65799;SDS011;52544;48.116;11.660;2022-11-13T11:00:31;15.32;;;8.68;;
65799;SDS011;52544;48.116;11.660;2022-11-13T11:02:58;15.77;;;8.80;;
65799;SDS011;52544;48.116;11.660;2022-11-13T11:05:24;12.93;;;8.02;;
65799;SDS011;52544;48.116;11.660;2022-11-13T11:07:55;13.90;;;7.68;;
65799;SDS011;52544;48.116;11.660;2022-11-13T11:10:31;14.52;;;8.43;;
65799;SDS011;52544;48.116;11.660;2022-11-13T11:13:21;16.08;;;8.73;;
65799;SDS011;52544;48.116;11.660;2022-11-13T11:15:52;15.90;;;8.60;;
65799;SDS011;52544;48.116;11.660;2022-11-13T11:18:32;18.17;;;9.02;;
65799;SDS011;52544;48.116;11.660;2022-11-13T11:21:06;17.88;;;10.02;;
65799;SDS011;52544;48.116;11.660;2022-11-13T11:26:23;17.48;;;9.10;;
65799;SDS011;52544;48.116;11.660;2022-11-13T11:29:13;21.80;;;10.32;;
65799;SDS011;52544;48.116;11.660;2022-11-13T11:32:05;16.23;;;9.25;;
65799;SDS011;52544;48.116;11.660;2022-11-13T11:34:40;20.38;;;10.25;;
65799;SDS011;52544;48.116;11.660;2022-11-13T11:37:13;16.55;;;8.45;;
65799;SDS011;52544;48.116;11.660;2022-11-13T11:45:02;17.38;;;9.35;;
65799;SDS011;52544;48.116;11.660;2022-11-13T11:47:36;16.75;;;9.32;;
65799;SDS011;52544;48.116;11.660;2022-11-13T11:50:02;17.75;;;9.35;;
65799;SDS011;52544;48.116;11.660;2022-11-13T12:00:18;16.95;;;9.48;;
65799;SDS011;52544;48.116;11.660;2022-11-13T12:02:49;15.55;;;9.27;;
65799;SDS011;52544;48.116;11.660;2022-11-13T12:05:21;17.30;;;9.45;;
65799;SDS011;52544;48.116;11.660;2022-11-13T12:07:56;18.27;;;9.95;;
65799;SDS011;52544;48.116;11.660;2022-11-13T12:13:27;17.73;;;9.60;;
65799;SDS011;52544;48.116;11.660;2022-11-13T12:15:59;19.42;;;9.80;;
65799;SDS011;52544;48.116;11.660;2022-11-13T12:21:20;18.80;;;10.02;;
65799;SDS011;52544;48.116;11.660;2022-11-13T12:23:54;21.20;;;10.40;;
65799;SDS011;52544;48.116;11.660;2022-11-13T12:26:36;18.30;;;9.88;;
65799;SDS011;52544;48.116;11.660;2022-11-13T12:34:47;18.65;;;10.10;;
65799;SDS011;52544;48.116;11.660;2022-11-13T12:40:03;20.02;;;10.77;;
65799;SDS011;52544;48.116;11.660;2022-11-13T12:50:38;19.13;;;10.15;;
65799;SDS011;52544;48.116;11.660;2022-11-13T12:53:05;17.73;;;10.60;;
65799;SDS011;52544;48.116;11.660;2022-11-13T12:55:35;21.15;;;11.05;;
65799;SDS011;52544;48.116;11.660;2022-11-13T13:00:36;17.00;;;9.82;;
65799;SDS011;52544;48.116;11.660;2022-11-13T13:06:16;20.75;;;10.15;;
65799;SDS011;52544;48.116;11.660;2022-11-13T13:11:36;18.33;;;9.70;;
65799;SDS011;52544;48.116;11.660;2022-11-13T13:14:34;19.27;;;9.63;;
65799;SDS011;52544;48.116;11.660;2022-11-13T13:17:21;15.50;;;9.07;;
65799;SDS011;52544;48.116;11.660;2022-11-13T13:19:57;17.75;;;9.02;;
65799;SDS011;52544;48.116;11.660;2022-11-13T13:22:25;14.45;;;8.82;;
65799;SDS011;52544;48.116;11.660;2022-11-13T13:25:03;16.75;;;8.95;;
65799;SDS011;52544;48.116;11.660;2022-11-13T13:27:37;13.93;;;8.00;;
65799;SDS011;52544;48.116;11.660;2022-11-13T13:30:22;16.08;;;8.55;;
65799;SDS011;52544;48.116;11.660;2022-11-13T13:35:49;13.35;;;7.63;;
65799;SDS011;52544;48.116;11.660;2022-11-13T13:38:28;11.57;;;7.15;;
65799;SDS011;52544;48.116;11.660;2022-11-13T13:46:30;8.50;;;5.63;;
65799;SDS011;52544;48.116;11.660;2022-11-13T13:49:07;9.13;;;5.63;;
65799;SDS011;52544;48.116;11.660;2022-11-13T13:51:40;10.85;;;5.50;;
65799;SDS011;52544;48.116;11.660;2022-11-13T13:54:07;7.70;;;4.88;;
65799;SDS011;52544;48.116;11.660;2022-11-13T13:56:40;8.88;;;5.10;;
65799;SDS011;52544;48.116;11.660;2022-11-13T13:59:13;12.48;;;5.70;;
65799;SDS011;52544;48.116;11.660;2022-11-13T14:01:51;9.20;;;5.72;;
65799;SDS011;52544;48.116;11.660;2022-11-13T14:04:22;7.57;;;5.10;;
65799;SDS011;52544;48.116;11.660;2022-11-13T14:06:50;8.20;;;5.00;;
65799;SDS011;52544;48.116;11.660;2022-11-13T14:09:19;9.77;;;5.65;;
65799;SDS011;52544;48.116;11.660;2022-11-13T14:11:46;8.38;;;5.43;;
65799;SDS011;52544;48.116;11.660;2022-11-13T14:14:16;8.52;;;4.90;;
65799;SDS011;52544;48.116;11.660;2022-11-13T14:16:48;7.95;;;5.38;;
65799;SDS011;52544;48.116;11.660;2022-11-13T14:19:14;10.50;;;5.40;;
65799;SDS011;52544;48.116;11.660;2022-11-13T14:21:40;8.82;;;5.57;;
65799;SDS011;52544;48.116;11.660;2022-11-13T14:24:13;9.05;;;5.63;;
65799;SDS011;52544;48.116;11.660;2022-11-13T14:26:45;9.13;;;5.57;;
65799;SDS011;52544;48.116;11.660;2022-11-13T14:29:18;8.18;;;5.40;;
65799;SDS011;52544;48.116;11.660;2022-11-13T14:31:47;15.70;;;8.93;;
65799;SDS011;52544;48.116;11.660;2022-11-13T14:34:20;8.60;;;5.40;;
65799;SDS011;52544;48.116;11.660;2022-11-13T14:36:47;11.80;;;5.50;;
65799;SDS011;52544;48.116;11.660;2022-11-13T14:39:24;8.18;;;5.45;;
65799;SDS011;52544;48.116;11.660;2022-11-13T14:41:53;8.10;;;5.22;;
65799;SDS011;52544;48.116;11.660;2022-11-13T14:44:25;10.23;;;5.85;;
65799;SDS011;52544;48.116;11.660;2022-11-13T14:47:17;9.38;;;6.10;;
65799;SDS011;52544;48.116;11.660;2022-11-13T14:50:18;9.18;;;5.53;;
65799;SDS011;52544;48.116;11.660;2022-11-13T14:52:53;10.07;;;5.82;;
65799;SDS011;52544;48.116;11.660;2022-11-13T14:55:30;12.77;;;7.00;;
65799;SDS011;52544;48.116;11.660;2022-11-13T14:57:57;10.13;;;5.93;;
65799;SDS011;52544;48.116;11.660;2022-11-13T15:00:41;14.77;;;6.85;;
65799;SDS011;52544;48.116;11.660;2022-11-13T15:03:06;11.10;;;5.97;;
65799;SDS011;52544;48.116;11.660;2022-11-13T15:05:31;10.63;;;6.47;;
65799;SDS011;52544;48.116;11.660;2022-11-13T15:07:57;12.77;;;7.00;;
65799;SDS011;52544;48.116;11.660;2022-11-13T15:10:24;12.75;;;7.18;;
65799;SDS011;52544;48.116;11.660;2022-11-13T15:12:52;12.23;;;6.22;;
65799;SDS011;52544;48.116;11.660;2022-11-13T15:15:20;9.88;;;6.53;;
65799;SDS011;52544;48.116;11.660;2022-11-13T15:17:49;10.63;;;6.88;;
65799;SDS011;52544;48.116;11.660;2022-11-13T15:20:17;11.00;;;6.95;;
65799;SDS011;52544;48.116;11.660;2022-11-13T15:22:52;14.10;;;8.00;;
65799;SDS011;52544;48.116;11.660;2022-11-13T15:25:20;14.40;;;8.77;;
65799;SDS011;52544;48.116;11.660;2022-11-13T15:27:47;12.70;;;6.82;;
65799;SDS011;52544;48.116;11.660;2022-11-13T15:30:13;11.35;;;7.00;;
65799;SDS011;52544;48.116;11.660;2022-11-13T15:32:39;11.65;;;6.63;;
65799;SDS011;52544;48.116;11.660;2022-11-13T15:35:05;13.57;;;7.97;;
65799;SDS011;52544;48.116;11.660;2022-11-13T15:37:35;14.57;;;8.20;;
65799;SDS011;52544;48.116;11.660;2022-11-13T15:40:02;14.93;;;8.25;;
65799;SDS011;52544;48.116;11.660;2022-11-13T15:42:29;16.58;;;8.40;;
65799;SDS011;52544;48.116;11.660;2022-11-13T15:44:58;17.75;;;9.25;;
65799;SDS011;52544;48.116;11.660;2022-11-13T15:47:25;15.98;;;8.95;;
65799;SDS011;52544;48.116;11.660;2022-11-13T15:49:55;15.80;;;8.90;;
65799;SDS011;52544;48.116;11.660;2022-11-13T15:52:21;17.27;;;9.10;;
65799;SDS011;52544;48.116;11.660;2022-11-13T15:54:47;18.80;;;10.40;;